createdAt,value
2023-10-21T00:02:24.882Z,94297.30
2023-10-21T00:04:53.134Z,94298.87
2023-10-21T00:07:21.330Z,94296.20
2023-10-21T00:09:49.475Z,94298.66
2023-10-21T00:12:17.702Z,94298.40
2023-10-21T00:14:46.080Z,94296.48
2023-10-21T00:17:14.230Z,94299.02
2023-10-21T00:19:42.538Z,94300.97
2023-10-21T00:22:11.476Z,94300.42
2023-10-21T00:24:39.820Z,94298.92
2023-10-21T00:27:08.343Z,94302.98
2023-10-21T00:29:36.858Z,94297.57
2023-10-21T00:32:06.054Z,94307.20
2023-10-21T00:34:39.473Z,94308.34
2023-10-21T00:37:09.291Z,94314.81
2023-10-21T00:39:38.533Z,94314.40
2023-10-21T00:42:07.034Z,94314.27
2023-10-21T00:44:35.389Z,94312.49
2023-10-21T00:47:04.181Z,94312.80
2023-10-21T00:49:33.666Z,94317.30
2023-10-21T00:52:04.694Z,94319.34
2023-10-21T00:54:33.448Z,94320.08
2023-10-21T00:57:02.072Z,94321.75
2023-10-21T00:59:30.333Z,94315.92
2023-10-21T01:01:58.737Z,94324.80
2023-10-21T01:04:27.580Z,94321.29
2023-10-21T01:06:56.890Z,94323.33
2023-10-21T01:09:27.753Z,94324.55
2023-10-21T01:11:56.424Z,94324.24
2023-10-21T01:14:25.447Z,94321.00
2023-10-21T01:16:53.811Z,94320.11
2023-10-21T01:19:23.359Z,94322.89
2023-10-21T01:21:51.593Z,94324.20
2023-10-21T01:24:19.887Z,94322.40
2023-10-21T01:26:48.247Z,94325.36
2023-10-21T01:29:16.655Z,94326.46
2023-10-21T01:31:45.370Z,94326.11
2023-10-21T01:34:14.328Z,94324.19
2023-10-21T01:36:42.930Z,94327.92
2023-10-21T01:39:11.892Z,94331.91
2023-10-21T01:41:40.444Z,94333.27
2023-10-21T01:44:11.158Z,94340.93
2023-10-21T01:46:42.251Z,94347.86
2023-10-21T01:49:13.574Z,94343.94
2023-10-21T01:51:45.291Z,94344.37
2023-10-21T01:54:17.303Z,94355.75
2023-10-21T01:56:48.751Z,94357.39
2023-10-21T01:59:20.240Z,94363.28
2023-10-21T02:01:51.268Z,94367.64
2023-10-21T02:04:22.160Z,94367.07
2023-10-21T02:06:52.318Z,94368.86
2023-10-21T02:09:24.270Z,94376.73
2023-10-21T02:11:59.293Z,94379.21
2023-10-21T02:14:31.246Z,94378.46
2023-10-21T02:17:02.773Z,94372.59
2023-10-21T02:19:34.471Z,94373.42
2023-10-21T02:22:07.316Z,94370.98
2023-10-21T02:24:39.176Z,94374.55
2023-10-21T02:27:14.336Z,94371.46
2023-10-21T02:29:47.239Z,94371.80
2023-10-21T02:32:19.208Z,94375.42
2023-10-21T02:34:50.593Z,94372.94
2023-10-21T02:37:21.704Z,94379.69
2023-10-21T02:39:52.283Z,94376.66
2023-10-21T02:42:24.279Z,94377.45
2023-10-21T02:52:30.261Z,94379.04
2023-10-21T02:54:58.531Z,94384.54
2023-10-21T02:57:27.051Z,94398.10
2023-10-21T02:59:56.043Z,94404.14
2023-10-21T03:02:24.233Z,94408.34
2023-10-21T03:04:52.982Z,94411.02
2023-10-21T03:07:21.257Z,94409.02
2023-10-21T03:09:49.843Z,94407.14
2023-10-21T03:12:18.189Z,94407.02
2023-10-21T03:14:46.999Z,94412.47
2023-10-21T03:17:15.653Z,94412.55
2023-10-21T03:19:44.490Z,94414.13
2023-10-21T03:22:12.777Z,94414.77
2023-10-21T03:24:41.251Z,94415.91
2023-10-21T03:27:09.820Z,94412.08
2023-10-21T03:29:38.084Z,94414.36
2023-10-21T03:32:07.773Z,94417.23
2023-10-21T03:34:36.302Z,94412.80
2023-10-21T03:37:05.502Z,94412.59
2023-10-21T03:39:34.077Z,94416.67
2023-10-21T03:42:02.420Z,94415.30
2023-10-21T03:44:30.668Z,94413.27
2023-10-21T03:46:59.041Z,94420.22
2023-10-21T03:49:27.537Z,94419.77
2023-10-21T03:51:56.290Z,94421.15
2023-10-21T03:54:24.591Z,94416.13
2023-10-21T03:56:53.086Z,94414.15
2023-10-21T03:59:21.354Z,94413.37
2023-10-21T04:01:49.844Z,94420.59
2023-10-21T04:04:18.453Z,94424.36
2023-10-21T04:06:47.046Z,94424.38
2023-10-21T04:09:15.799Z,94423.02
2023-10-21T04:11:44.158Z,94424.90
2023-10-21T04:14:12.330Z,94421.43
2023-10-21T04:16:45.853Z,94425.05
2023-10-21T04:19:14.721Z,94428.95
2023-10-21T04:21:43.043Z,94426.76
2023-10-21T04:24:11.104Z,94432.15
2023-10-21T04:26:39.659Z,94436.97
2023-10-21T04:29:08.180Z,94433.88
2023-10-21T04:31:36.940Z,94441.27
2023-10-21T04:34:05.513Z,94444.56
2023-10-21T04:36:33.677Z,94442.20
2023-10-21T04:39:01.854Z,94443.95
2023-10-21T04:41:30.576Z,94445.34
2023-10-21T04:43:58.929Z,94441.10
2023-10-21T04:46:27.290Z,94441.35
2023-10-21T04:48:56.096Z,94439.17
2023-10-21T04:51:25.066Z,94445.48
2023-10-21T04:53:53.345Z,94447.08
2023-10-21T04:56:22.076Z,94449.94
2023-10-21T04:58:50.346Z,94458.23
2023-10-21T05:01:18.789Z,94460.73
2023-10-21T05:03:47.325Z,94464.42
2023-10-21T05:06:15.745Z,94464.63
2023-10-21T05:08:44.282Z,94473.16
2023-10-21T05:11:12.620Z,94474.84
2023-10-21T05:13:40.989Z,94477.38
2023-10-21T05:16:09.427Z,94483.54
2023-10-21T05:18:37.517Z,94485.27
2023-10-21T05:21:09.012Z,94488.33
2023-10-21T05:23:37.339Z,94489.09
2023-10-21T05:26:05.715Z,94492.80
2023-10-21T05:28:34.135Z,94495.40
2023-10-21T05:31:03.446Z,94496.71
2023-10-21T05:33:31.697Z,94498.13
2023-10-21T05:36:01.622Z,94503.67
2023-10-21T05:38:30.004Z,94509.89
2023-10-21T05:41:00.925Z,94511.17
2023-10-21T05:43:29.286Z,94509.09
2023-10-21T05:45:58.022Z,94516.71
2023-10-21T05:48:26.506Z,94521.46
2023-10-21T05:50:55.090Z,94526.71
2023-10-21T05:53:23.530Z,94531.58
2023-10-21T05:55:51.804Z,94537.29
2023-10-21T05:58:20.705Z,94540.61
2023-10-21T06:00:48.950Z,94550.12
2023-10-21T06:03:17.357Z,94548.73
2023-10-21T06:05:45.941Z,94554.06
2023-10-21T06:08:14.355Z,94558.70
2023-10-21T06:10:45.668Z,94551.21
2023-10-21T06:13:14.044Z,94546.25
2023-10-21T06:15:42.223Z,94547.74
2023-10-21T06:18:10.567Z,94556.59
2023-10-21T06:20:38.901Z,94555.75
2023-10-21T06:23:07.206Z,94556.21
2023-10-21T06:25:35.656Z,94554.27
2023-10-21T06:28:04.643Z,94559.54
2023-10-21T06:30:33.063Z,94561.02
2023-10-21T06:33:01.506Z,94558.02
2023-10-21T06:35:30.512Z,94557.23
2023-10-21T06:37:58.786Z,94559.13
2023-10-21T06:40:41.118Z,94556.63
2023-10-21T06:43:15.216Z,94567.45
2023-10-21T06:45:46.724Z,94577.01
2023-10-21T06:48:15.231Z,94579.14
2023-10-21T06:50:43.757Z,94578.16
2023-10-21T06:53:12.213Z,94577.63
2023-10-21T06:55:43.089Z,94572.70
2023-10-21T06:58:12.885Z,94572.16
2023-10-21T07:00:41.265Z,94581.09
2023-10-21T07:03:09.944Z,94584.42
2023-10-21T07:05:38.300Z,94580.35
2023-10-21T07:08:07.396Z,94591.32
2023-10-21T07:10:35.804Z,94597.66
2023-10-21T07:13:04.789Z,94601.73
2023-10-21T07:15:33.107Z,94610.80
2023-10-21T07:18:02.026Z,94615.97
2023-10-21T07:20:30.749Z,94615.63
2023-10-21T07:22:59.244Z,94617.25
2023-10-21T07:25:27.918Z,94622.89
2023-10-21T07:27:56.080Z,94618.34
2023-10-21T07:30:25.959Z,94619.30
2023-10-21T07:32:54.774Z,94617.75
2023-10-21T07:35:23.583Z,94620.59
2023-10-21T07:37:52.202Z,94623.55
2023-10-21T07:40:21.370Z,94625.93
2023-10-21T07:42:50.944Z,94622.19
2023-10-21T07:45:19.170Z,94619.55
2023-10-21T07:47:47.591Z,94620.11
2023-10-21T07:50:16.102Z,94623.80
2023-10-21T07:52:44.667Z,94622.83
2023-10-21T07:55:15.865Z,94631.14
2023-10-21T07:57:44.020Z,94634.26
2023-10-21T08:00:15.186Z,94628.09
2023-10-21T08:02:44.731Z,94636.55
2023-10-21T08:05:12.929Z,94649.95
2023-10-21T08:07:41.226Z,94652.30
2023-10-21T08:10:11.248Z,94657.98
2023-10-21T08:12:40.508Z,94664.65
2023-10-21T08:15:09.905Z,94669.46
2023-10-21T08:17:38.703Z,94670.30
2023-10-21T08:20:08.892Z,94675.23
2023-10-21T08:22:37.024Z,94675.33
2023-10-21T08:25:07.887Z,94676.58
2023-10-21T08:27:39.876Z,94677.56
2023-10-21T08:30:12.027Z,94677.27
2023-10-21T08:32:40.752Z,94678.95
2023-10-21T08:35:09.165Z,94676.39
2023-10-21T08:37:38.815Z,94682.16
2023-10-21T08:40:11.459Z,94683.84
2023-10-21T08:45:12.569Z,94693.00
2023-10-21T08:47:44.135Z,94698.60
2023-10-21T08:50:14.445Z,94697.61
2023-10-21T08:52:43.973Z,94694.87
2023-10-21T08:55:12.538Z,94705.11
2023-10-21T08:57:40.676Z,94702.48
2023-10-21T09:00:11.770Z,94703.77
2023-10-21T09:02:40.381Z,94715.27
2023-10-21T09:05:13.109Z,94723.84
2023-10-21T09:07:46.887Z,94725.20
2023-10-21T09:10:16.811Z,94726.71
2023-10-21T09:12:44.945Z,94719.45
2023-10-21T09:15:13.813Z,94721.17
2023-10-21T09:17:53.824Z,94726.93
2023-10-21T09:20:23.448Z,94726.63
2023-10-21T09:22:53.507Z,94725.48
2023-10-21T09:25:23.709Z,94721.95
2023-10-21T09:27:57.180Z,94722.77
2023-10-21T09:30:26.783Z,94729.27
2023-10-21T09:33:04.185Z,94734.06
2023-10-21T09:35:33.471Z,94733.54
2023-10-21T09:38:19.937Z,94725.55
2023-10-21T09:40:49.946Z,94732.23
2023-10-21T09:43:19.189Z,94732.04
2023-10-21T09:45:51.274Z,94730.56
2023-10-21T09:48:19.883Z,94727.36
2023-10-21T09:50:52.479Z,94729.48
2023-10-21T09:53:26.541Z,94726.98
2023-10-21T09:55:57.225Z,94723.11
2023-10-21T09:58:28.277Z,94723.83
2023-10-21T10:00:57.520Z,94718.58
2023-10-21T10:03:28.053Z,94713.95
2023-10-21T10:05:56.723Z,94719.52
2023-10-21T10:08:25.368Z,94717.81
2023-10-21T10:10:56.776Z,94714.77
2023-10-21T10:13:26.480Z,94710.40
2023-10-21T10:15:56.595Z,94710.83
2023-10-21T10:18:25.740Z,94704.05
2023-10-21T10:20:54.652Z,94696.79
2023-10-21T10:23:26.301Z,94706.67
2023-10-21T10:25:58.705Z,94701.39
2023-10-21T10:28:27.948Z,94706.91
2023-10-21T10:30:58.695Z,94708.43
2023-10-21T10:33:32.687Z,94708.98
2023-10-21T10:36:14.559Z,94713.85
2023-10-21T10:38:46.930Z,94714.27
2023-10-21T10:41:20.523Z,94713.94
2023-10-21T10:43:53.326Z,94723.73
2023-10-21T10:46:25.302Z,94724.92
2023-10-21T10:48:54.039Z,94720.72
2023-10-21T10:51:32.353Z,94730.08
2023-10-21T10:54:02.141Z,94738.83
2023-10-21T10:56:51.668Z,94734.14
2023-10-21T10:59:20.339Z,94734.28
2023-10-21T11:01:59.093Z,94736.58
2023-10-21T11:04:27.560Z,94737.85
2023-10-21T11:06:58.118Z,94738.64
2023-10-21T11:09:32.431Z,94735.08
2023-10-21T11:12:09.344Z,94739.27
2023-10-21T11:14:39.859Z,94739.54
2023-10-21T11:17:08.387Z,94742.95
2023-10-21T11:19:37.134Z,94745.30
2023-10-21T11:22:09.841Z,94747.39
2023-10-21T11:24:39.043Z,94747.19
2023-10-21T11:27:07.878Z,94749.38
2023-10-21T11:29:38.980Z,94748.25
2023-10-21T11:32:12.605Z,94749.70
2023-10-21T11:34:46.070Z,94750.92
2023-10-21T11:37:14.578Z,94748.40
2023-10-21T11:39:43.113Z,94742.89
2023-10-21T11:42:21.648Z,94735.80
2023-10-21T11:45:01.873Z,94734.48
2023-10-21T11:47:31.976Z,94741.99
2023-10-21T11:50:00.538Z,94738.62
2023-10-21T11:52:29.014Z,94748.17
2023-10-21T11:55:11.239Z,94750.14
2023-10-21T11:57:59.490Z,94739.61
2023-10-21T12:00:47.170Z,94746.11
2023-10-21T12:03:34.328Z,94747.84
2023-10-21T12:06:08.729Z,94748.44
2023-10-21T12:08:54.264Z,94748.30
2023-10-21T12:11:28.458Z,94750.97
2023-10-21T12:13:56.864Z,94751.19
2023-10-21T12:16:31.079Z,94756.83
2023-10-21T12:19:18.285Z,94749.59
2023-10-21T12:22:02.121Z,94749.59
2023-10-21T12:24:45.671Z,94756.02
2023-10-21T12:27:32.612Z,94756.14
2023-10-21T12:30:20.240Z,94757.84
2023-10-21T12:32:54.394Z,94758.86
2023-10-21T12:35:37.945Z,94762.86
2023-10-21T12:38:06.751Z,94765.59
2023-10-21T12:40:37.741Z,94768.91
2023-10-21T12:43:18.573Z,94765.67
2023-10-21T12:45:48.138Z,94758.98
2023-10-21T12:48:19.553Z,94755.40
2023-10-21T12:50:52.431Z,94752.02
2023-10-21T12:53:20.902Z,94751.61
2023-10-21T12:55:49.285Z,94747.48
2023-10-21T12:58:17.544Z,94749.41
2023-10-21T13:00:46.339Z,94753.26
2023-10-21T13:03:14.827Z,94756.98
2023-10-21T13:13:22.883Z,94769.04
2023-10-21T13:15:51.307Z,94770.47
2023-10-21T13:18:20.824Z,94772.02
2023-10-21T13:20:50.605Z,94777.58
2023-10-21T13:23:19.216Z,94775.73
2023-10-21T13:25:47.861Z,94778.00
2023-10-21T13:28:16.140Z,94773.52
2023-10-21T13:30:45.793Z,94779.58
2023-10-21T13:33:14.649Z,94783.31
2023-10-21T13:35:43.129Z,94783.38
2023-10-21T13:38:12.938Z,94787.20
2023-10-21T13:40:41.194Z,94787.33
2023-10-21T13:43:11.410Z,94786.48
2023-10-21T13:45:39.778Z,94788.09
2023-10-21T13:48:12.830Z,94786.69
2023-10-21T13:50:42.543Z,94784.95
2023-10-21T13:53:15.917Z,94786.60
2023-10-21T13:55:47.880Z,94786.20
2023-10-21T13:58:22.086Z,94790.12
2023-10-21T14:00:52.186Z,94788.55
2023-10-21T14:03:23.374Z,94791.24
2023-10-21T14:05:53.921Z,94791.15
2023-10-21T14:08:26.806Z,94795.71
2023-10-21T14:10:57.927Z,94791.23
2023-10-21T14:13:29.713Z,94792.40
2023-10-21T14:16:06.378Z,94794.73
2023-10-21T14:18:34.989Z,94793.83
2023-10-21T14:21:03.474Z,94794.17
2023-10-21T14:23:32.025Z,94795.04
2023-10-21T14:26:01.012Z,94801.79
2023-10-21T14:28:30.136Z,94797.88
2023-10-21T14:31:00.667Z,94796.67
2023-10-21T14:33:34.001Z,94800.37
2023-10-21T14:36:07.619Z,94798.77
2023-10-21T14:38:36.430Z,94798.31
2023-10-21T14:41:04.820Z,94803.56
2023-10-21T14:43:33.409Z,94807.77
2023-10-21T14:46:01.983Z,94803.39
2023-10-21T14:48:30.498Z,94804.19
2023-10-21T14:50:58.864Z,94796.89
2023-10-21T14:53:27.569Z,94798.52
2023-10-21T14:55:55.930Z,94799.33
2023-10-21T14:58:25.396Z,94796.55
2023-10-21T15:00:54.707Z,94794.17
2023-10-21T15:03:24.557Z,94793.33
2023-10-21T15:05:54.460Z,94795.05
2023-10-21T15:08:25.342Z,94798.13
2023-10-21T15:10:54.494Z,94801.38
2023-10-21T15:13:29.027Z,94799.48
2023-10-21T15:16:01.503Z,94805.38
2023-10-21T15:18:31.947Z,94813.33
2023-10-21T15:21:08.283Z,94817.22
2023-10-21T15:23:38.584Z,94816.51
2023-10-21T15:26:18.006Z,94815.05
2023-10-21T15:28:46.662Z,94817.93
2023-10-21T15:31:14.946Z,94818.30
2023-10-21T15:33:43.336Z,94822.64
2023-10-21T15:36:13.441Z,94821.50
2023-10-21T15:38:41.951Z,94826.44
2023-10-21T15:41:17.824Z,94824.70
2023-10-21T15:43:46.564Z,94828.16
2023-10-21T15:46:14.859Z,94829.72
2023-10-21T15:48:43.486Z,94830.38
2023-10-21T15:51:13.901Z,94830.69
2023-10-21T15:53:46.005Z,94835.88
2023-10-21T15:56:17.127Z,94838.52
2023-10-21T15:58:45.886Z,94840.59
2023-10-21T16:01:14.193Z,94840.20
2023-10-21T16:03:42.870Z,94842.79
2023-10-21T16:06:15.101Z,94846.46
2023-10-21T16:08:44.905Z,94851.48
2023-10-21T16:11:13.225Z,94850.96
2023-10-21T16:13:41.621Z,94854.67
2023-10-21T16:16:10.629Z,94859.38
2023-10-21T16:18:38.975Z,94861.09
2023-10-21T16:21:07.482Z,94866.33
2023-10-21T16:23:35.982Z,94869.05
2023-10-21T16:26:04.349Z,94869.02
2023-10-21T16:28:33.222Z,94866.89
2023-10-21T16:31:05.601Z,94869.42
2023-10-21T16:33:36.748Z,94874.63
2023-10-21T16:36:06.345Z,94873.19
2023-10-21T16:38:36.556Z,94877.92
2023-10-21T16:41:05.469Z,94883.54
2023-10-21T16:43:36.705Z,94891.24
2023-10-21T16:46:06.176Z,94897.20
2023-10-21T16:48:34.805Z,94898.02
2023-10-21T16:51:03.060Z,94905.42
2023-10-21T16:53:32.681Z,94914.69
2023-10-21T16:56:01.073Z,94916.36
2023-10-21T16:58:29.394Z,94919.16
2023-10-21T17:01:00.710Z,94918.16
2023-10-21T17:03:29.332Z,94918.26
2023-10-21T17:06:01.984Z,94916.79
2023-10-21T17:08:35.806Z,94919.11
2023-10-21T17:11:05.222Z,94921.46
2023-10-21T17:13:33.502Z,94920.07
2023-10-21T17:16:02.644Z,94920.16
2023-10-21T17:18:33.212Z,94918.28
2023-10-21T17:21:03.623Z,94914.80
2023-10-21T17:23:34.139Z,94911.44
2023-10-21T17:26:02.699Z,94911.44
2023-10-21T17:28:34.077Z,94907.66
2023-10-21T17:31:02.454Z,94907.50
2023-10-21T17:33:39.831Z,94911.89
2023-10-21T17:36:19.648Z,94911.50
2023-10-21T17:38:48.106Z,94908.17
2023-10-21T17:41:16.352Z,94914.50
2023-10-21T17:43:44.693Z,94915.61
2023-10-21T17:46:13.240Z,94921.49
2023-10-21T17:48:41.823Z,94921.63
2023-10-21T17:51:10.288Z,94926.65
2023-10-21T17:53:39.104Z,94923.42
2023-10-21T17:56:07.558Z,94926.45
2023-10-21T17:58:36.060Z,94922.84
2023-10-21T18:01:05.818Z,94922.23
2023-10-21T18:03:34.884Z,94917.34
2023-10-21T18:06:03.662Z,94911.70
2023-10-21T18:08:32.263Z,94911.41
2023-10-21T18:11:00.715Z,94915.14
2023-10-21T18:13:28.868Z,94916.79
2023-10-21T18:15:58.591Z,94918.75
2023-10-21T18:18:27.109Z,94917.58
2023-10-21T18:20:55.466Z,94910.21
2023-10-21T18:23:23.760Z,94911.23
2023-10-21T18:26:03.365Z,94910.35
2023-10-21T18:28:32.453Z,94913.38
2023-10-21T18:31:02.249Z,94909.29
2023-10-21T18:33:31.444Z,94913.06
2023-10-21T18:35:59.857Z,94914.42
2023-10-21T18:38:28.360Z,94917.52
2023-10-21T18:40:57.001Z,94916.02
2023-10-21T18:43:25.157Z,94910.30
2023-10-21T18:45:58.053Z,94912.41
2023-10-21T18:48:26.394Z,94920.55
2023-10-21T18:51:01.649Z,94913.38
2023-10-21T18:53:29.749Z,94910.83
2023-10-21T18:55:58.099Z,94913.46
2023-10-21T18:58:26.562Z,94916.36
2023-10-21T19:00:59.080Z,94920.01
2023-10-21T19:03:27.989Z,94922.00
2023-10-21T19:05:56.351Z,94919.50
2023-10-21T19:08:25.450Z,94917.61
2023-10-21T19:10:54.035Z,94920.25
2023-10-21T19:13:25.324Z,94921.61
2023-10-21T19:15:53.594Z,94920.39
2023-10-21T19:18:22.432Z,94919.64
2023-10-21T19:20:50.619Z,94918.97
2023-10-21T19:23:18.969Z,94921.15
2023-10-21T19:25:49.900Z,94920.13
2023-10-21T19:28:19.571Z,94916.69
2023-10-21T19:30:48.094Z,94904.05
2023-10-21T19:33:16.529Z,94901.67
2023-10-21T19:35:54.667Z,94895.42
2023-10-21T19:38:23.748Z,94893.98
2023-10-21T19:40:54.294Z,94894.95
2023-10-21T19:43:24.708Z,94895.48
2023-10-21T19:45:52.968Z,94894.07
2023-10-21T19:48:21.343Z,94890.52
2023-10-21T19:50:49.610Z,94889.39
2023-10-21T19:53:18.256Z,94893.89
2023-10-21T19:56:00.005Z,94898.63
2023-10-21T19:58:28.756Z,94909.48
2023-10-21T20:01:07.818Z,94903.48
2023-10-21T20:03:37.323Z,94902.73
2023-10-21T20:06:06.713Z,94900.17
2023-10-21T20:08:35.501Z,94900.02
2023-10-21T20:11:09.027Z,94899.47
2023-10-21T20:13:37.408Z,94903.63
2023-10-21T20:16:10.818Z,94909.67
2023-10-21T20:18:41.039Z,94903.72
2023-10-21T20:21:09.447Z,94897.30
2023-10-21T20:23:42.090Z,94891.60
2023-10-21T20:26:16.167Z,94885.24
2023-10-21T20:28:44.973Z,94881.73
2023-10-21T20:31:13.825Z,94877.12
2023-10-21T20:33:43.598Z,94874.84
2023-10-21T20:36:12.166Z,94873.78
2023-10-21T20:38:40.422Z,94862.84
2023-10-21T20:41:10.011Z,94859.95
2023-10-21T20:43:39.538Z,94857.35
2023-10-21T20:46:09.164Z,94852.86
2023-10-21T20:48:40.234Z,94852.23
2023-10-21T20:51:18.693Z,94853.77
2023-10-21T20:53:46.981Z,94854.65
2023-10-21T20:56:20.292Z,94849.02
2023-10-21T20:58:49.177Z,94849.92
2023-10-21T21:01:30.322Z,94844.16
2023-10-21T21:04:05.685Z,94841.25
2023-10-21T21:06:34.318Z,94846.52
2023-10-21T21:09:06.973Z,94842.13
2023-10-21T21:11:35.461Z,94836.57
2023-10-21T21:14:04.258Z,94832.77
2023-10-21T21:16:36.277Z,94828.83
2023-10-21T21:19:06.316Z,94826.89
2023-10-21T21:21:35.263Z,94828.89
2023-10-21T21:24:06.778Z,94827.96
2023-10-21T21:26:36.093Z,94826.75
2023-10-21T21:29:05.676Z,94823.04
2023-10-21T21:31:34.189Z,94820.63
2023-10-21T21:34:02.564Z,94821.45
2023-10-21T21:36:33.156Z,94817.27
2023-10-21T21:39:01.892Z,94811.33
2023-10-21T21:41:30.262Z,94811.23
2023-10-21T21:43:58.467Z,94811.28
2023-10-21T21:46:26.972Z,94807.66
2023-10-21T21:48:55.534Z,94804.03
2023-10-21T21:51:24.112Z,94805.17
2023-10-21T21:53:52.585Z,94802.24
2023-10-21T21:56:20.674Z,94791.51
2023-10-21T21:58:49.370Z,94795.59
2023-10-21T22:01:27.788Z,94806.88
2023-10-21T22:03:57.822Z,94803.70
2023-10-21T22:06:27.024Z,94797.77
2023-10-21T22:08:55.865Z,94795.30
2023-10-21T22:11:26.401Z,94796.19
2023-10-21T22:13:54.970Z,94793.13
2023-10-21T22:16:24.053Z,94795.11
2023-10-21T22:18:52.578Z,94795.73
2023-10-21T22:21:21.357Z,94791.46
2023-10-21T22:24:01.127Z,94794.98
2023-10-21T22:26:31.402Z,94794.33
2023-10-21T22:29:02.665Z,94795.17
2023-10-21T22:31:31.505Z,94787.40
2023-10-21T22:34:00.172Z,94785.48
2023-10-21T22:36:28.430Z,94789.96
2023-10-21T22:38:57.575Z,94791.17
2023-10-21T22:41:26.843Z,94784.94
2023-10-21T22:43:55.138Z,94782.39
2023-10-21T22:46:23.822Z,94785.06
2023-10-21T22:48:52.694Z,94789.39
2023-10-21T22:51:20.820Z,94789.20
2023-10-21T22:53:48.987Z,94788.02
2023-10-21T22:56:17.445Z,94784.40
2023-10-21T22:58:45.929Z,94782.85
2023-10-21T23:01:15.007Z,94780.34
2023-10-21T23:03:43.582Z,94782.14
2023-10-21T23:06:12.761Z,94788.20
2023-10-21T23:08:41.227Z,94789.45
2023-10-21T23:11:10.472Z,94794.89
2023-10-21T23:13:39.145Z,94796.45
2023-10-21T23:16:07.718Z,94793.05
2023-10-21T23:18:39.134Z,94795.98
2023-10-21T23:21:07.969Z,94799.59
2023-10-21T23:23:36.421Z,94797.48
2023-10-21T23:26:04.949Z,94799.72
2023-10-21T23:28:33.437Z,94798.48
2023-10-21T23:31:03.115Z,94798.10
2023-10-21T23:33:31.581Z,94810.19
2023-10-21T23:36:04.900Z,94812.35
2023-10-21T23:38:34.521Z,94817.09
2023-10-21T23:41:09.117Z,94818.71
2023-10-21T23:43:37.498Z,94824.13
2023-10-21T23:46:09.737Z,94833.80
2023-10-21T23:48:39.007Z,94835.64
2023-10-21T23:51:07.670Z,94838.86
2023-10-21T23:53:36.407Z,94842.50
2023-10-21T23:56:04.876Z,94847.95
2023-10-21T23:58:33.012Z,94852.56
